createdAt,value
2017-11-12T00:00:33.166Z,99.99
2017-11-12T00:01:33.119Z,99.99
2017-11-12T00:02:33.183Z,99.99
2017-11-12T00:03:33.064Z,99.99
2017-11-12T00:04:33.094Z,99.99
2017-11-12T00:05:33.003Z,99.99
2017-11-12T00:06:33.008Z,99.99
2017-11-12T00:07:32.936Z,99.99
2017-11-12T00:08:33.015Z,99.99
2017-11-12T00:09:32.884Z,99.99
2017-11-12T00:10:32.930Z,99.99
2017-11-12T00:11:32.822Z,99.99
2017-11-12T00:12:32.843Z,99.99
2017-11-12T00:13:32.790Z,99.99
2017-11-12T00:14:32.748Z,99.99
2017-11-12T00:15:32.696Z,99.99
2017-11-12T00:16:32.768Z,99.99
2017-11-12T00:17:32.639Z,99.99
2017-11-12T00:18:32.676Z,99.99
2017-11-12T00:19:32.580Z,99.99
2017-11-12T00:20:32.591Z,99.99
2017-11-12T00:21:32.521Z,99.99
2017-11-12T00:22:32.500Z,99.99
2017-11-12T00:23:32.461Z,99.99
2017-11-12T00:24:32.515Z,99.99
2017-11-12T00:25:32.401Z,99.99
2017-11-12T00:26:32.423Z,99.99
2017-11-12T00:27:32.338Z,99.99
2017-11-12T00:28:32.333Z,99.99
2017-11-12T00:29:32.278Z,99.99
2017-11-12T00:30:32.350Z,99.99
2017-11-12T00:31:32.214Z,99.99
2017-11-12T00:32:32.261Z,99.99
2017-11-12T00:33:32.158Z,99.99
2017-11-12T00:34:32.169Z,99.99
2017-11-12T00:35:32.097Z,99.99
2017-11-12T00:36:32.086Z,99.99
2017-11-12T00:37:32.038Z,99.99
2017-11-12T00:38:32.098Z,99.99
2017-11-12T00:39:31.977Z,99.99
2017-11-12T00:40:32.010Z,99.99
2017-11-12T00:41:31.918Z,99.99
2017-11-12T00:42:31.921Z,99.99
2017-11-12T00:43:31.852Z,99.99
2017-11-12T00:44:31.958Z,99.99
2017-11-12T00:45:31.792Z,99.99
2017-11-12T00:46:31.848Z,99.99
2017-11-12T00:47:31.734Z,99.99
2017-11-12T00:48:31.757Z,99.99
2017-11-12T00:49:31.671Z,99.99
2017-11-12T00:50:31.670Z,99.99
2017-11-12T00:51:31.612Z,99.99
2017-11-12T00:52:31.684Z,99.99
2017-11-12T00:53:31.558Z,99.99
2017-11-12T00:54:31.600Z,99.99
2017-11-12T00:55:31.491Z,99.99
2017-11-12T00:56:31.506Z,99.99
2017-11-12T00:57:31.432Z,99.99
2017-11-12T00:58:31.418Z,99.99
2017-11-12T00:59:31.371Z,99.99
2017-11-12T01:00:31.433Z,99.99
2017-11-12T01:01:31.312Z,99.99
2017-11-12T01:02:31.344Z,99.99
2017-11-12T01:03:31.253Z,99.99
2017-11-12T01:04:31.254Z,99.99
2017-11-12T01:05:31.192Z,99.99
2017-11-12T01:06:31.268Z,99.99
2017-11-12T01:07:31.132Z,99.99
2017-11-12T01:08:31.180Z,99.99
2017-11-12T01:09:31.071Z,99.99
2017-11-12T01:10:31.092Z,99.99
2017-11-12T01:11:31.010Z,99.99
2017-11-12T01:12:31.000Z,99.99
2017-11-12T01:13:30.957Z,99.99
2017-11-12T01:14:31.017Z,99.99
2017-11-12T01:15:30.893Z,99.99
2017-11-12T01:16:30.926Z,99.99
2017-11-12T01:17:30.835Z,99.99
2017-11-12T01:18:30.841Z,99.99
2017-11-12T01:19:30.772Z,99.99
2017-11-12T01:20:30.746Z,99.99
2017-11-12T01:21:30.706Z,99.99
2017-11-12T01:22:30.762Z,99.99
2017-11-12T01:23:30.652Z,99.99
2017-11-12T01:24:30.689Z,99.99
2017-11-12T01:25:30.590Z,99.99
2017-11-12T01:26:30.588Z,99.99
2017-11-12T01:27:30.525Z,99.99
2017-11-12T01:28:30.606Z,99.99
2017-11-12T01:29:30.471Z,99.99
2017-11-12T01:30:30.522Z,99.99
2017-11-12T01:31:30.406Z,99.99
2017-11-12T01:32:30.424Z,99.99
2017-11-12T01:33:30.347Z,99.99
2017-11-12T01:34:30.342Z,99.99
2017-11-12T01:35:30.287Z,99.99
2017-11-12T01:36:30.348Z,99.99
2017-11-12T01:37:30.227Z,99.99
2017-11-12T01:38:30.265Z,99.99
2017-11-12T01:39:30.171Z,99.99
2017-11-12T01:40:30.170Z,99.99
2017-11-12T01:41:30.109Z,99.99
2017-11-12T01:42:30.088Z,99.99
2017-11-12T01:43:30.044Z,99.99
2017-11-12T01:44:30.104Z,99.99
2017-11-12T01:45:29.981Z,99.99
2017-11-12T01:46:30.017Z,99.99
2017-11-12T01:47:29.922Z,99.99
2017-11-12T01:48:29.926Z,99.99
2017-11-12T01:49:29.868Z,99.99
2017-11-12T01:50:29.956Z,99.99
2017-11-12T01:51:29.813Z,99.99
2017-11-12T01:52:29.853Z,99.99
2017-11-12T01:53:29.741Z,99.99
2017-11-12T01:54:29.757Z,99.99
2017-11-12T01:55:29.680Z,99.99
2017-11-12T01:56:29.673Z,99.99
2017-11-12T01:57:29.618Z,99.99
2017-11-12T01:58:29.684Z,99.99
2017-11-12T01:59:29.556Z,99.99
2017-11-12T02:00:29.596Z,99.99
2017-11-12T02:01:29.502Z,99.99
2017-11-12T02:02:29.512Z,99.99
2017-11-12T02:03:29.432Z,99.99
2017-11-12T02:04:29.418Z,99.99
2017-11-12T02:05:29.379Z,99.99
2017-11-12T02:06:29.433Z,99.99
2017-11-12T02:07:29.315Z,99.99
2017-11-12T02:08:29.346Z,99.99
2017-11-12T02:09:29.256Z,99.99
2017-11-12T02:10:29.257Z,99.99
2017-11-12T02:11:29.189Z,99.99
2017-11-12T02:12:29.267Z,99.99
2017-11-12T02:13:29.136Z,99.99
2017-11-12T02:14:29.187Z,99.99
2017-11-12T02:15:35.951Z,99.99
2017-11-12T02:16:29.091Z,99.99
2017-11-12T02:17:29.012Z,99.99
2017-11-12T02:18:29.002Z,99.99
2017-11-12T02:19:28.951Z,99.99
2017-11-12T02:20:29.020Z,99.99
2017-11-12T02:21:28.889Z,99.99
2017-11-12T02:22:28.932Z,99.99
2017-11-12T02:23:28.835Z,99.99
2017-11-12T02:24:28.871Z,99.99
2017-11-12T02:25:28.770Z,99.99
2017-11-12T02:26:28.851Z,99.99
2017-11-12T02:27:28.712Z,99.99
2017-11-12T02:28:28.762Z,99.99
2017-11-12T02:29:28.648Z,99.99
2017-11-12T02:30:28.676Z,99.99
2017-11-12T02:31:28.589Z,99.99
2017-11-12T02:32:28.587Z,99.99
2017-11-12T02:33:28.529Z,99.99
2017-11-12T02:34:28.600Z,99.99
2017-11-12T02:35:28.471Z,99.99
2017-11-12T02:36:28.511Z,99.99
2017-11-12T02:37:28.410Z,99.99
2017-11-12T02:38:28.422Z,99.99
2017-11-12T02:39:28.345Z,99.99
2017-11-12T02:40:28.337Z,99.99
2017-11-12T02:41:28.288Z,99.99
2017-11-12T02:42:28.354Z,99.99
2017-11-12T02:43:28.222Z,99.99
2017-11-12T02:44:28.259Z,99.99
2017-11-12T02:45:28.161Z,99.99
2017-11-12T02:46:28.170Z,99.99
2017-11-12T02:47:28.100Z,99.99
2017-11-12T02:48:28.084Z,99.99
2017-11-12T02:49:28.040Z,99.99
2017-11-12T02:50:28.097Z,99.99
2017-11-12T02:51:27.978Z,99.99
2017-11-12T02:52:28.009Z,99.99
2017-11-12T02:53:27.918Z,99.99
2017-11-12T02:54:27.917Z,99.99
2017-11-12T02:55:27.858Z,99.99
2017-11-12T02:56:27.941Z,99.99
2017-11-12T02:57:27.800Z,99.99
2017-11-12T02:58:27.842Z,99.99
2017-11-12T02:59:27.732Z,99.99
2017-11-12T03:00:27.760Z,99.99
2017-11-12T03:01:27.677Z,99.99
2017-11-12T03:02:27.667Z,99.99
2017-11-12T03:03:27.614Z,99.99
2017-11-12T03:04:27.689Z,99.99
2017-11-12T03:05:27.556Z,99.99
2017-11-12T03:06:27.595Z,99.99
2017-11-12T03:07:27.490Z,99.99
2017-11-12T03:08:27.503Z,99.99
2017-11-12T03:09:27.440Z,99.99
2017-11-12T03:10:27.416Z,99.99
2017-11-12T03:11:27.368Z,99.99
2017-11-12T03:12:27.430Z,99.99
2017-11-12T03:13:27.308Z,99.99
2017-11-12T03:14:27.341Z,99.99
2017-11-12T03:15:27.255Z,99.99
2017-11-12T03:16:27.252Z,99.99
2017-11-12T03:17:27.187Z,99.99
2017-11-12T03:18:27.273Z,99.99
2017-11-12T03:19:27.128Z,99.99
2017-11-12T03:20:27.180Z,99.99
2017-11-12T03:21:27.073Z,99.99
2017-11-12T03:22:27.089Z,99.99
2017-11-12T03:23:27.002Z,99.99
2017-11-12T03:24:26.998Z,99.99
2017-11-12T03:25:26.949Z,99.99
2017-11-12T03:26:27.020Z,99.99
2017-11-12T03:27:26.882Z,99.99
2017-11-12T03:28:26.926Z,99.99
2017-11-12T03:29:26.822Z,99.99
2017-11-12T03:30:26.851Z,99.99
2017-11-12T03:31:26.764Z,99.99
2017-11-12T03:32:26.747Z,99.99
2017-11-12T03:33:26.699Z,99.99
2017-11-12T03:34:26.764Z,99.99
2017-11-12T03:35:26.650Z,99.99
2017-11-12T03:36:26.674Z,99.99
2017-11-12T03:37:26.586Z,99.99
2017-11-12T03:38:26.590Z,99.99
2017-11-12T03:39:26.525Z,99.99
2017-11-12T03:40:26.598Z,99.99
2017-11-12T03:41:26.461Z,99.99
2017-11-12T03:42:26.510Z,99.99
2017-11-12T03:43:26.398Z,99.99
2017-11-12T03:44:26.424Z,99.99
2017-11-12T03:45:26.333Z,99.99
2017-11-12T03:46:26.338Z,99.99
2017-11-12T03:47:26.276Z,99.99
2017-11-12T03:48:26.351Z,99.99
2017-11-12T03:49:26.214Z,99.99
2017-11-12T03:50:26.259Z,99.99
2017-11-12T03:51:26.149Z,99.99
2017-11-12T03:52:26.172Z,99.99
2017-11-12T03:53:26.096Z,99.99
2017-11-12T03:54:26.082Z,99.99
2017-11-12T03:55:26.033Z,99.99
2017-11-12T03:56:26.095Z,99.99
2017-11-12T03:57:25.973Z,99.99
2017-11-12T03:58:26.007Z,99.99
2017-11-12T03:59:25.907Z,99.99
2017-11-12T04:00:25.919Z,99.99
2017-11-12T04:01:25.847Z,99.99
2017-11-12T04:02:25.830Z,99.99
2017-11-12T04:03:25.790Z,99.99
2017-11-12T04:04:25.843Z,99.99
2017-11-12T04:05:25.731Z,99.99
2017-11-12T04:06:25.754Z,99.99
2017-11-12T04:07:25.661Z,99.99
2017-11-12T04:08:25.663Z,99.99
2017-11-12T04:09:25.607Z,99.99
2017-11-12T04:10:25.680Z,99.99
2017-11-12T04:11:25.544Z,99.99
2017-11-12T04:12:25.594Z,99.99
2017-11-12T04:13:25.483Z,99.99
2017-11-12T04:14:25.506Z,99.99
2017-11-12T04:15:25.425Z,99.99
2017-11-12T04:16:25.415Z,99.99
2017-11-12T04:17:25.362Z,99.99
2017-11-12T04:18:25.441Z,99.99
2017-11-12T04:19:25.299Z,99.99
2017-11-12T04:20:25.341Z,99.99
2017-11-12T04:21:25.240Z,99.99
2017-11-12T04:22:25.252Z,99.99
2017-11-12T04:23:25.180Z,99.99
2017-11-12T04:24:25.161Z,99.99
2017-11-12T04:25:25.120Z,99.99
2017-11-12T04:26:25.177Z,99.99
2017-11-12T04:27:25.056Z,99.99
2017-11-12T04:28:25.089Z,99.99
2017-11-12T04:29:24.994Z,99.99
2017-11-12T04:30:24.999Z,99.99
2017-11-12T04:31:24.934Z,99.99
2017-11-12T04:32:25.024Z,99.99
2017-11-12T04:33:24.874Z,99.99
2017-11-12T04:34:24.922Z,99.99
2017-11-12T04:35:24.821Z,99.99
2017-11-12T04:36:24.839Z,99.99
2017-11-12T04:37:24.753Z,99.99
2017-11-12T04:38:24.749Z,99.99
2017-11-12T04:39:24.695Z,99.99
2017-11-12T04:40:24.760Z,99.99
2017-11-12T04:41:24.658Z,99.99
2017-11-12T04:42:24.675Z,99.99
2017-11-12T04:43:24.570Z,99.99
2017-11-12T04:44:24.586Z,99.99
2017-11-12T04:45:24.507Z,99.99
2017-11-12T04:46:24.498Z,99.99
2017-11-12T04:47:24.456Z,99.99
2017-11-12T04:48:24.513Z,99.99
2017-11-12T04:49:24.386Z,99.99
2017-11-12T04:50:24.421Z,99.99
2017-11-12T04:51:24.324Z,99.99
2017-11-12T04:52:24.343Z,99.99
2017-11-12T04:53:24.264Z,99.99
2017-11-12T04:54:24.250Z,99.99
2017-11-12T04:55:24.206Z,99.99
2017-11-12T04:56:24.263Z,99.99
2017-11-12T04:57:24.143Z,99.99
2017-11-12T04:58:24.173Z,99.99
2017-11-12T04:59:24.082Z,99.99
2017-11-12T05:00:24.088Z,99.99
2017-11-12T05:01:24.024Z,99.99
2017-11-12T05:02:24.101Z,99.99
2017-11-12T05:03:23.965Z,99.99
2017-11-12T05:04:24.021Z,99.99
2017-11-12T05:05:23.900Z,99.99
2017-11-12T05:06:23.921Z,99.99
2017-11-12T05:07:23.854Z,99.99
2017-11-12T05:08:23.833Z,99.99
2017-11-12T05:09:23.804Z,99.99
2017-11-12T05:10:23.846Z,99.99
2017-11-12T05:11:23.714Z,99.99
2017-11-12T05:12:23.758Z,99.99
2017-11-12T05:13:23.659Z,99.99
2017-11-12T05:14:23.672Z,99.99
2017-11-12T05:15:23.599Z,99.99
2017-11-12T05:16:23.582Z,99.99
2017-11-12T05:17:23.534Z,99.99
2017-11-12T05:18:23.593Z,99.99
2017-11-12T05:19:23.474Z,99.99
2017-11-12T05:20:23.510Z,99.99
2017-11-12T05:21:23.413Z,99.99
2017-11-12T05:22:23.420Z,99.99
2017-11-12T05:23:23.352Z,99.99
2017-11-12T05:24:23.435Z,99.99
2017-11-12T05:25:23.297Z,99.99
2017-11-12T05:26:23.351Z,99.99
2017-11-12T05:27:23.229Z,99.99
2017-11-12T05:28:23.254Z,99.99
2017-11-12T05:29:23.171Z,99.99
2017-11-12T05:30:23.161Z,99.99
2017-11-12T05:31:23.118Z,99.99
2017-11-12T05:32:23.188Z,99.99
2017-11-12T05:33:23.046Z,99.99
2017-11-12T05:34:23.095Z,99.99
2017-11-12T05:35:22.990Z,99.99
2017-11-12T05:36:23.005Z,99.99
2017-11-12T05:37:22.929Z,99.99
2017-11-12T05:38:22.919Z,99.99
2017-11-12T05:39:22.865Z,99.99
2017-11-12T05:40:22.931Z,99.99
2017-11-12T05:41:22.807Z,99.99
2017-11-12T05:42:22.834Z,99.99
2017-11-12T05:43:22.744Z,99.99
2017-11-12T05:44:22.752Z,99.99
2017-11-12T05:45:22.687Z,99.99
2017-11-12T05:46:22.767Z,99.99
2017-11-12T05:47:22.628Z,99.99
2017-11-12T05:48:22.669Z,99.99
2017-11-12T05:49:22.564Z,99.99
2017-11-12T05:50:22.584Z,99.99
2017-11-12T05:51:22.504Z,99.99
2017-11-12T05:52:22.499Z,99.99
2017-11-12T05:53:22.444Z,99.99
2017-11-12T05:54:22.513Z,99.99
2017-11-12T05:55:22.377Z,99.99
2017-11-12T05:56:22.423Z,99.99
2017-11-12T05:57:22.322Z,99.99
2017-11-12T05:58:22.336Z,99.99
2017-11-12T05:59:22.262Z,99.99
2017-11-12T06:00:22.347Z,99.99
2017-11-12T06:01:22.205Z,99.99
2017-11-12T06:02:22.261Z,99.99
2017-11-12T06:03:22.142Z,99.99
2017-11-12T06:04:22.170Z,99.99
2017-11-12T06:05:22.081Z,99.99
2017-11-12T06:06:22.077Z,99.99
2017-11-12T06:07:22.020Z,99.99
2017-11-12T06:08:22.097Z,99.99
2017-11-12T06:09:21.956Z,99.99
2017-11-12T06:10:22.006Z,99.99
2017-11-12T06:11:21.909Z,99.99
2017-11-12T06:12:21.919Z,99.99
2017-11-12T06:13:21.839Z,99.99
2017-11-12T06:14:21.830Z,99.99
2017-11-12T06:15:21.778Z,99.99
2017-11-12T06:16:21.849Z,99.99
2017-11-12T06:17:21.711Z,99.99
2017-11-12T06:18:21.754Z,99.99
2017-11-12T06:19:21.656Z,99.99
2017-11-12T06:20:21.661Z,99.99
2017-11-12T06:21:21.598Z,99.99
2017-11-12T06:22:21.679Z,99.99
2017-11-12T06:23:21.534Z,99.99
2017-11-12T06:24:21.590Z,99.99
2017-11-12T06:25:21.470Z,99.99
2017-11-12T06:26:21.503Z,99.99
2017-11-12T06:27:21.413Z,99.99
2017-11-12T06:28:21.413Z,99.99
2017-11-12T06:29:21.352Z,99.99
2017-11-12T06:30:21.432Z,99.99
2017-11-12T06:31:21.291Z,99.99
2017-11-12T06:32:21.335Z,99.99
2017-11-12T06:33:21.232Z,99.99
2017-11-12T06:34:21.251Z,99.99
2017-11-12T06:35:21.166Z,99.99
2017-11-12T06:36:21.161Z,99.99
2017-11-12T06:37:21.108Z,99.99
2017-11-12T06:38:21.176Z,99.99
2017-11-12T06:39:21.047Z,99.99
2017-11-12T06:40:21.088Z,99.99
2017-11-12T06:41:20.988Z,99.99
2017-11-12T06:42:20.997Z,99.99
2017-11-12T06:43:20.929Z,99.99
2017-11-12T06:44:20.909Z,99.99
2017-11-12T06:45:20.868Z,99.99
2017-11-12T06:46:20.921Z,99.99
2017-11-12T06:47:20.809Z,99.99
2017-11-12T06:48:20.833Z,99.99
2017-11-12T06:49:20.745Z,99.99
2017-11-12T06:50:20.776Z,99.99
2017-11-12T06:51:20.679Z,99.99
2017-11-12T06:52:20.765Z,99.99
2017-11-12T06:53:20.623Z,99.99
2017-11-12T06:54:20.673Z,99.99
2017-11-12T06:55:20.563Z,99.99
2017-11-12T06:56:20.581Z,99.99
2017-11-12T06:57:20.501Z,99.99
2017-11-12T06:58:20.494Z,99.99
2017-11-12T06:59:20.447Z,99.99
2017-11-12T07:00:20.508Z,99.99
2017-11-12T07:01:20.379Z,99.99
2017-11-12T07:02:20.420Z,99.99
2017-11-12T07:03:20.322Z,99.99
2017-11-12T07:04:20.334Z,99.99
2017-11-12T07:05:20.257Z,99.99
2017-11-12T07:06:20.243Z,99.99
2017-11-12T07:07:20.197Z,99.99
2017-11-12T07:08:20.256Z,99.99
2017-11-12T07:09:20.137Z,99.99
2017-11-12T07:10:20.168Z,99.99
2017-11-12T07:11:20.072Z,99.99
2017-11-12T07:12:20.080Z,99.99
2017-11-12T07:13:20.016Z,99.99
2017-11-12T07:14:20.090Z,99.99
2017-11-12T07:15:19.963Z,99.99
2017-11-12T07:16:20.006Z,99.99
2017-11-12T07:17:19.895Z,99.99
2017-11-12T07:18:19.916Z,99.99
2017-11-12T07:19:19.833Z,99.99
2017-11-12T07:20:19.826Z,99.99
2017-11-12T07:21:19.784Z,99.99
2017-11-12T07:22:19.841Z,99.99
2017-11-12T07:23:19.708Z,99.99
2017-11-12T07:24:19.753Z,99.99
2017-11-12T07:25:19.654Z,99.99
2017-11-12T07:26:19.666Z,99.99
2017-11-12T07:27:19.592Z,99.99
2017-11-12T07:28:19.680Z,99.99
2017-11-12T07:29:19.538Z,99.99
2017-11-12T07:30:19.591Z,99.99
2017-11-12T07:31:19.471Z,99.99
2017-11-12T07:32:19.500Z,99.99
2017-11-12T07:33:19.410Z,99.99
2017-11-12T07:34:19.409Z,99.99
2017-11-12T07:35:19.356Z,99.99
2017-11-12T07:36:19.426Z,99.99
2017-11-12T07:37:19.285Z,99.99
2017-11-12T07:38:19.337Z,99.99
2017-11-12T07:39:19.228Z,99.99
2017-11-12T07:40:19.247Z,99.99
2017-11-12T07:41:19.168Z,99.99
2017-11-12T07:42:19.159Z,99.99
2017-11-12T07:43:19.107Z,99.99
2017-11-12T07:44:19.174Z,99.99
2017-11-12T07:45:19.049Z,99.99
2017-11-12T07:46:19.082Z,99.99
2017-11-12T07:47:18.986Z,99.99
2017-11-12T07:48:18.995Z,99.99
2017-11-12T07:49:18.927Z,99.99
2017-11-12T07:50:18.908Z,99.99
2017-11-12T07:51:18.867Z,99.99
2017-11-12T07:52:18.919Z,99.99
2017-11-12T07:53:18.806Z,99.99
2017-11-12T07:54:18.835Z,99.99
2017-11-12T07:55:18.743Z,99.99
2017-11-12T07:56:18.745Z,99.99
2017-11-12T07:57:18.683Z,99.99
2017-11-12T07:58:18.758Z,99.99
2017-11-12T07:59:18.626Z,99.99
2017-11-12T08:00:18.679Z,99.99
2017-11-12T08:01:18.563Z,99.99
2017-11-12T08:02:18.580Z,99.99
2017-11-12T08:03:18.500Z,99.99
2017-11-12T08:04:18.499Z,99.99
2017-11-12T08:05:18.459Z,99.99
2017-11-12T08:06:18.508Z,99.99
2017-11-12T08:07:18.380Z,99.99
2017-11-12T08:08:18.419Z,99.99
2017-11-12T08:09:18.320Z,99.99
2017-11-12T08:10:18.327Z,99.99
2017-11-12T08:11:18.256Z,99.99
2017-11-12T08:12:18.242Z,99.99
2017-11-12T08:13:18.199Z,99.99
2017-11-12T08:14:18.256Z,99.99
2017-11-12T08:15:18.137Z,99.99
2017-11-12T08:16:18.165Z,99.99
2017-11-12T08:17:18.079Z,99.99
2017-11-12T08:18:18.079Z,99.99
2017-11-12T08:19:18.014Z,99.99
2017-11-12T08:20:18.101Z,99.99
2017-11-12T08:21:17.963Z,99.99
2017-11-12T08:22:18.002Z,99.99
2017-11-12T08:23:17.896Z,99.99
2017-11-12T08:24:17.914Z,99.99
2017-11-12T08:25:17.834Z,99.99
2017-11-12T08:26:17.849Z,99.99
2017-11-12T08:27:17.774Z,99.99
2017-11-12T08:28:17.840Z,99.99
2017-11-12T08:29:17.713Z,99.99
2017-11-12T08:30:17.754Z,99.99
2017-11-12T08:31:17.672Z,99.99
2017-11-12T08:32:17.664Z,99.99
2017-11-12T08:33:17.596Z,99.99
2017-11-12T08:34:17.577Z,99.99
2017-11-12T08:35:17.530Z,99.99
2017-11-12T08:36:17.588Z,99.99
2017-11-12T08:37:17.481Z,99.99
2017-11-12T08:38:17.501Z,99.99
2017-11-12T08:39:17.412Z,99.99
2017-11-12T08:40:17.412Z,99.99
2017-11-12T08:41:17.354Z,99.99
2017-11-12T08:42:17.425Z,99.99
2017-11-12T08:43:17.294Z,99.99
2017-11-12T08:44:17.338Z,99.99
2017-11-12T08:45:17.232Z,99.99
2017-11-12T08:46:17.250Z,99.99
2017-11-12T08:47:17.173Z,99.99
2017-11-12T08:48:17.247Z,99.99
2017-11-12T08:49:17.113Z,99.99
2017-11-12T08:50:17.177Z,99.99
2017-11-12T08:51:17.073Z,99.99
2017-11-12T08:52:17.086Z,99.99
2017-11-12T08:53:16.994Z,99.99
2017-11-12T08:54:16.997Z,99.99
2017-11-12T08:55:16.936Z,99.99
2017-11-12T08:56:17.011Z,99.99
2017-11-12T08:57:16.876Z,99.99
2017-11-12T08:58:16.919Z,99.99
2017-11-12T08:59:16.810Z,99.99
2017-11-12T09:00:16.831Z,99.99
2017-11-12T09:01:16.750Z,99.99
2017-11-12T09:02:16.743Z,99.99
2017-11-12T09:03:16.703Z,99.99
2017-11-12T09:04:16.759Z,99.99
2017-11-12T09:05:16.640Z,99.99
2017-11-12T09:06:16.669Z,99.99
2017-11-12T09:07:16.581Z,99.99
2017-11-12T09:08:16.583Z,99.99
2017-11-12T09:09:16.511Z,99.99
2017-11-12T09:10:16.594Z,99.99
2017-11-12T09:11:16.457Z,99.99
2017-11-12T09:12:16.506Z,99.99
2017-11-12T09:13:16.398Z,99.99
2017-11-12T09:14:16.418Z,99.99
2017-11-12T09:15:16.332Z,99.99
2017-11-12T09:16:16.332Z,99.99
2017-11-12T09:17:16.274Z,99.99
2017-11-12T09:18:16.361Z,99.99
2017-11-12T09:19:16.222Z,99.99
2017-11-12T09:20:16.252Z,99.99
2017-11-12T09:21:16.166Z,99.99
2017-11-12T09:22:16.169Z,99.99
2017-11-12T09:23:16.093Z,99.99
2017-11-12T09:24:16.180Z,99.99
2017-11-12T09:25:16.041Z,99.99
2017-11-12T09:26:16.091Z,99.99
2017-11-12T09:27:15.982Z,99.99
2017-11-12T09:28:16.003Z,99.99
2017-11-12T09:29:15.914Z,99.99
2017-11-12T09:30:15.935Z,99.99
2017-11-12T09:31:15.880Z,99.99
2017-11-12T09:32:15.928Z,99.99
2017-11-12T09:33:15.800Z,99.99
2017-11-12T09:34:15.842Z,99.99
2017-11-12T09:35:15.741Z,99.99
2017-11-12T09:36:15.755Z,99.99
2017-11-12T09:37:15.684Z,99.99
2017-11-12T09:38:15.767Z,99.99
2017-11-12T09:39:15.623Z,99.99
2017-11-12T09:40:15.675Z,99.99
2017-11-12T09:41:15.563Z,99.99
2017-11-12T09:42:15.588Z,99.99
2017-11-12T09:43:15.505Z,99.99
2017-11-12T09:44:15.496Z,99.99
2017-11-12T09:45:15.450Z,99.99
2017-11-12T09:46:15.514Z,99.99
2017-11-12T09:47:15.388Z,99.99
2017-11-12T09:48:15.425Z,99.99
2017-11-12T09:49:15.322Z,99.99
2017-11-12T09:50:15.338Z,99.99
2017-11-12T09:51:15.269Z,99.99
2017-11-12T09:52:15.351Z,99.99
2017-11-12T09:53:15.210Z,99.99
2017-11-12T09:54:15.259Z,99.99
2017-11-12T09:55:15.155Z,99.99
2017-11-12T09:56:15.168Z,99.99
2017-11-12T09:57:15.091Z,99.99
2017-11-12T09:58:15.092Z,99.99
2017-11-12T09:59:15.035Z,99.99
2017-11-12T10:00:15.100Z,99.99
2017-11-12T10:01:14.970Z,99.99
2017-11-12T10:02:15.051Z,99.99
2017-11-12T10:03:14.916Z,99.99
2017-11-12T10:04:14.917Z,99.99
2017-11-12T10:05:14.852Z,99.99
2017-11-12T10:06:14.830Z,99.99
2017-11-12T10:07:14.793Z,99.99
2017-11-12T10:08:14.845Z,99.99
2017-11-12T10:09:14.730Z,99.99
2017-11-12T10:10:14.757Z,99.99
2017-11-12T10:11:14.673Z,99.99
2017-11-12T10:12:14.688Z,99.99
2017-11-12T10:13:14.622Z,99.99
2017-11-12T10:14:14.683Z,99.99
2017-11-12T10:15:14.553Z,99.99
2017-11-12T10:16:14.594Z,99.99
2017-11-12T10:17:14.498Z,99.99
2017-11-12T10:18:14.509Z,99.99
2017-11-12T10:19:14.497Z,99.83
2017-11-12T10:20:14.524Z,98.69
2017-11-12T10:21:14.382Z,98.88
2017-11-12T10:22:14.439Z,99.16
2017-11-12T10:23:14.314Z,98.50
2017-11-12T10:24:14.350Z,99.35
2017-11-12T10:25:14.267Z,99.59
2017-11-12T10:26:14.259Z,98.83
2017-11-12T10:27:14.207Z,98.45
2017-11-12T10:28:14.280Z,97.64
2017-11-12T10:29:14.140Z,97.07
2017-11-12T10:30:14.248Z,97.17
2017-11-12T10:31:14.089Z,97.45
2017-11-12T10:32:14.096Z,97.97
2017-11-12T10:33:14.043Z,97.50
2017-11-12T10:34:14.100Z,96.65
2017-11-12T10:35:13.969Z,97.41
2017-11-12T10:36:14.012Z,97.03
2017-11-12T10:37:13.909Z,97.22
2017-11-12T10:38:13.931Z,96.45
2017-11-12T10:39:13.849Z,96.17
2017-11-12T10:40:13.843Z,93.84
2017-11-12T10:41:13.793Z,91.70
2017-11-12T10:42:13.847Z,91.65
2017-11-12T10:43:13.732Z,88.93
2017-11-12T10:44:13.769Z,86.27
2017-11-12T10:45:13.689Z,85.55
2017-11-12T10:46:13.680Z,85.80
2017-11-12T10:47:13.623Z,86.90
2017-11-12T10:48:13.690Z,87.37
2017-11-12T10:49:13.564Z,89.56
2017-11-12T10:50:13.543Z,88.85
2017-11-12T10:51:13.609Z,88.37
2017-11-12T10:52:13.486Z,89.04
2017-11-12T10:53:13.523Z,89.37
2017-11-12T10:54:13.428Z,90.23
2017-11-12T10:55:13.432Z,90.42
2017-11-12T10:56:13.377Z,90.70
2017-11-12T10:57:13.445Z,92.13
2017-11-12T10:58:13.317Z,92.99
2017-11-12T10:59:13.362Z,92.99
2017-11-12T11:00:13.264Z,92.80
2017-11-12T11:01:13.269Z,92.70
2017-11-12T11:02:13.212Z,92.13
2017-11-12T11:03:13.283Z,92.08
2017-11-12T11:04:13.152Z,92.27
2017-11-12T11:05:13.201Z,93.13
2017-11-12T11:06:13.105Z,93.32
2017-11-12T11:07:13.105Z,93.51
2017-11-12T11:08:13.051Z,93.23
2017-11-12T11:09:13.128Z,93.23
2017-11-12T11:10:12.984Z,93.04
2017-11-12T11:11:13.032Z,93.99
2017-11-12T11:12:12.928Z,93.79
2017-11-12T11:13:12.957Z,94.08
2017-11-12T11:14:12.872Z,94.18
2017-11-12T11:15:12.953Z,93.32
2017-11-12T11:16:12.815Z,93.04
2017-11-12T11:17:12.866Z,93.70
2017-11-12T11:18:12.758Z,93.51
2017-11-12T11:19:12.779Z,93.13
2017-11-12T11:20:12.697Z,93.89
2017-11-12T11:21:12.684Z,93.99
2017-11-12T11:22:12.645Z,94.18
2017-11-12T11:23:12.699Z,94.08
2017-11-12T11:24:12.587Z,94.08
2017-11-12T11:25:12.611Z,94.27
2017-11-12T11:26:12.567Z,93.99
2017-11-12T11:27:12.526Z,93.89
2017-11-12T11:28:12.472Z,94.18
2017-11-12T11:29:12.547Z,94.32
2017-11-12T11:30:12.415Z,93.79
2017-11-12T11:31:12.452Z,93.13
2017-11-12T11:32:12.385Z,93.99
2017-11-12T11:33:12.359Z,94.84
2017-11-12T11:34:12.305Z,94.74
2017-11-12T11:35:12.375Z,95.41
2017-11-12T11:36:12.249Z,95.22
2017-11-12T11:37:12.284Z,95.41
2017-11-12T11:38:12.192Z,95.22
2017-11-12T11:39:12.202Z,95.98
2017-11-12T11:40:12.133Z,95.60
2017-11-12T11:41:12.228Z,95.41
2017-11-12T11:42:12.074Z,96.12
2017-11-12T11:43:12.120Z,97.64
2017-11-12T11:44:12.031Z,98.02
2017-11-12T11:45:12.032Z,98.97
2017-11-12T11:46:11.962Z,98.88
2017-11-12T11:47:11.944Z,97.78
2017-11-12T11:48:11.899Z,97.22
2017-11-12T11:49:11.971Z,96.45
2017-11-12T11:50:11.844Z,97.22
2017-11-12T11:51:11.869Z,97.12
2017-11-12T11:52:11.785Z,97.31
2017-11-12T11:53:11.788Z,97.50
2017-11-12T11:54:11.731Z,98.17
2017-11-12T11:55:11.797Z,97.64
2017-11-12T11:56:11.672Z,97.78
2017-11-12T11:57:11.710Z,98.21
2017-11-12T11:58:11.613Z,99.16
2017-11-12T11:59:11.620Z,99.97
2017-11-12T12:00:11.555Z,99.99
2017-11-12T12:01:11.635Z,99.88
2017-11-12T12:02:11.496Z,99.50
2017-11-12T12:03:11.546Z,99.11
2017-11-12T12:04:11.442Z,98.74
2017-11-12T12:05:11.475Z,99.11
2017-11-12T12:06:11.390Z,99.59
2017-11-12T12:07:11.368Z,99.99
2017-11-12T12:08:11.326Z,98.93
2017-11-12T12:09:11.384Z,98.83
2017-11-12T12:10:11.274Z,97.78
2017-11-12T12:11:11.293Z,98.07
2017-11-12T12:12:11.209Z,98.17
2017-11-12T12:13:11.206Z,99.02
2017-11-12T12:14:11.164Z,98.36
2017-11-12T12:15:11.218Z,98.93
2017-11-12T12:16:11.099Z,98.55
2017-11-12T12:17:11.137Z,97.97
2017-11-12T12:18:11.037Z,98.26
2017-11-12T12:19:11.047Z,98.07
2017-11-12T12:20:10.980Z,97.88
2017-11-12T12:21:11.058Z,97.88
2017-11-12T12:22:10.923Z,98.26
2017-11-12T12:23:10.969Z,97.88
2017-11-12T12:24:10.862Z,97.97
2017-11-12T12:25:10.884Z,97.78
2017-11-12T12:26:10.805Z,97.97
2017-11-12T12:27:10.894Z,97.50
2017-11-12T12:28:10.753Z,97.41
2017-11-12T12:29:10.805Z,97.78
2017-11-12T12:30:10.811Z,97.60
2017-11-12T12:31:10.662Z,96.74
2017-11-12T12:32:10.719Z,96.55
2017-11-12T12:33:10.610Z,96.26
2017-11-12T12:34:10.631Z,96.17
2017-11-12T12:35:10.560Z,95.41
2017-11-12T12:36:10.648Z,95.41
2017-11-12T12:37:10.489Z,95.51
2017-11-12T12:38:10.556Z,96.31
2017-11-12T12:39:10.434Z,96.17
2017-11-12T12:40:10.474Z,93.08
2017-11-12T12:41:10.375Z,90.18
2017-11-12T12:42:10.382Z,90.56
2017-11-12T12:43:10.398Z,89.99
2017-11-12T12:44:10.293Z,90.75
2017-11-12T12:45:10.319Z,91.61
2017-11-12T12:46:10.237Z,91.56
2017-11-12T12:47:10.314Z,91.56
2017-11-12T12:48:10.187Z,92.32
2017-11-12T12:49:10.223Z,92.22
2017-11-12T12:50:10.132Z,92.70
2017-11-12T12:51:10.136Z,92.80
2017-11-12T12:52:10.068Z,93.18